Time;durP1;ratioP1;P1;durP2;ratioP2;P2;SDS_P1;SDS_P2;PMS_P1;PMS_P2;Temp;Humidity;BMP_temperature;BMP_pressure;BME280_temperature;BME280_humidity;BME280_pressure;Samples;Min_cycle;Max_cycle;Signal;HPM_P1;HPM_P2
2021/08/10 00:01:15;;;;;;;3.40;1.10;;;;;;;-148.56;100.00;61375.16;5032299;28;20388;-59
2021/08/10 00:04:38;;;;;;;2.58;1.15;;;;;;;-148.56;100.00;61375.16;5027958;28;20033;-57
2021/08/10 00:08:02;;;;;;;1.27;0.98;;;;;;;-148.56;100.00;61375.16;5031743;28;20056;-56
2021/08/10 00:11:26;;;;;;;2.60;1.13;;;;;;;-148.56;100.00;61375.16;5019744;28;20138;-56
2021/08/10 00:14:50;;;;;;;1.65;0.98;;;;;;;-148.56;100.00;61375.16;5019232;28;20029;-55
2021/08/10 00:18:14;;;;;;;1.33;0.93;;;;;;;-148.56;100.00;61375.16;5030348;28;20467;-58
2021/08/10 00:21:36;;;;;;;1.85;1.13;;;;;;;-148.56;100.00;61375.16;5030840;28;20032;-56
2021/08/10 00:24:59;;;;;;;5.78;1.10;;;;;;;-148.56;100.00;61375.16;5024682;28;20082;-56
2021/08/10 00:28:23;;;;;;;4.78;1.23;;;;;;;-148.56;100.00;61375.16;5018460;28;20041;-58
2021/08/10 00:31:47;;;;;;;2.83;1.10;;;;;;;-148.56;100.00;61375.16;5031153;28;20062;-58
2021/08/10 00:35:10;;;;;;;1.67;0.85;;;;;;;-148.56;100.00;61375.16;5033463;28;20048;-56
2021/08/10 00:38:34;;;;;;;3.30;1.48;;;;;;;-148.56;100.00;61375.16;5039196;28;20068;-58
2021/08/10 00:41:58;;;;;;;3.15;1.40;;;;;;;-148.56;100.00;61375.16;5043446;28;20136;-58
2021/08/10 00:45:22;;;;;;;3.50;0.98;;;;;;;-148.56;100.00;61375.16;5023569;28;20036;-55
2021/08/10 00:48:46;;;;;;;4.38;1.20;;;;;;;-148.56;100.00;61375.16;5019526;28;20446;-56
2021/08/10 00:52:10;;;;;;;1.75;1.00;;;;;;;-148.56;100.00;61375.16;5029077;28;20044;-58
2021/08/10 00:55:34;;;;;;;1.88;1.00;;;;;;;-148.56;100.00;61375.16;5004387;28;20045;-57
2021/08/10 00:58:58;;;;;;;2.25;1.05;;;;;;;-148.56;100.00;61375.16;5011133;28;20577;-57
2021/08/10 01:02:22;;;;;;;3.88;0.90;;;;;;;-148.56;100.00;61375.16;5026751;28;20032;-58
2021/08/10 01:05:47;;;;;;;3.55;1.00;;;;;;;-148.56;100.00;61375.16;5030591;28;20029;-57
2021/08/10 01:09:20;;;;;;;2.67;0.93;;;;;;;-148.56;100.00;61375.16;5018116;28;20476;-57
2021/08/10 01:12:50;;;;;;;1.88;0.82;;;;;;;-148.56;100.00;61375.16;5011888;28;20047;-57
2021/08/10 01:16:17;;;;;;;1.60;0.75;;;;;;;-148.56;100.00;61375.16;5031288;28;20363;-58
2021/08/10 01:20:01;;;;;;;4.85;0.75;;;;;;;-148.56;100.00;61375.16;5023904;28;20112;-57
2021/08/10 01:23:26;;;;;;;2.33;0.88;;;;;;;-148.56;100.00;61375.16;5016148;28;20114;-57
2021/08/10 01:27:09;;;;;;;3.53;0.73;;;;;;;-148.56;100.00;61375.16;5030946;28;20041;-56
2021/08/10 01:30:48;;;;;;;2.90;0.80;;;;;;;-148.56;100.00;61375.16;5016834;28;20441;-54
2021/08/10 01:34:14;;;;;;;1.25;0.70;;;;;;;-148.56;100.00;61375.16;5028613;28;20056;-56
2021/08/10 01:37:38;;;;;;;1.50;0.90;;;;;;;-148.56;100.00;61375.16;5032206;28;20025;-56
2021/08/10 01:41:03;;;;;;;1.85;0.90;;;;;;;-148.56;100.00;61375.16;5026282;28;20111;-54
2021/08/10 01:44:27;;;;;;;0.90;0.60;;;;;;;-148.56;100.00;61375.16;5023911;28;20025;-58
2021/08/10 01:47:52;;;;;;;0.95;0.68;;;;;;;-148.56;100.00;61375.16;5017781;28;20033;-58
2021/08/10 01:51:16;;;;;;;2.08;0.90;;;;;;;-148.56;100.00;61375.16;5025385;28;20067;-57
2021/08/10 01:54:40;;;;;;;3.65;0.82;;;;;;;-148.56;100.00;61375.16;5006662;28;20037;-55
2021/08/10 01:58:04;;;;;;;1.10;0.70;;;;;;;-148.56;100.00;61375.16;5001449;28;20033;-58
2021/08/10 02:01:30;;;;;;;1.70;1.00;;;;;;;-148.56;100.00;61375.16;5006660;28;20036;-55
2021/08/10 02:04:54;;;;;;;1.83;0.70;;;;;;;-148.56;100.00;61375.16;5021000;28;20029;-54
2021/08/10 02:08:18;;;;;;;1.30;0.65;;;;;;;-148.56;100.00;61375.16;5035521;28;20527;-55
2021/08/10 02:11:28;;;;;;;1.27;0.77;;;;;;;-148.56;0.00;61375.16;5027757;28;20024;-56
2021/08/10 02:14:53;;;;;;;1.33;0.60;;;;;;;-148.56;100.00;61375.16;5015423;28;20059;-58
2021/08/10 02:18:18;;;;;;;0.82;0.70;;;;;;;-148.56;100.00;61375.16;5027819;28;20032;-59
2021/08/10 02:21:48;;;;;;;1.40;0.90;;;;;;;-148.56;100.00;61375.16;5011751;28;20028;-58
2021/08/10 02:25:19;;;;;;;0.77;0.70;;;;;;;-148.56;100.00;61375.16;4997855;28;20385;-54
2021/08/10 02:28:50;;;;;;;1.10;0.73;;;;;;;-148.56;100.00;61375.16;5018125;28;20067;-57
2021/08/10 02:32:16;;;;;;;1.35;0.52;;;;;;;-148.56;100.00;61375.16;5030284;28;20075;-54
2021/08/10 02:35:40;;;;;;;2.30;0.85;;;;;;;-148.56;100.00;61375.16;5020243;28;20120;-56
2021/08/10 02:39:06;;;;;;;1.27;0.75;;;;;;;-148.56;100.00;61375.16;5029492;28;20471;-56
2021/08/10 02:42:30;;;;;;;2.50;1.05;;;;;;;-148.56;100.00;61375.16;5028689;28;20321;-55
2021/08/10 02:45:54;;;;;;;4.15;0.88;;;;;;;-148.56;100.00;61375.16;5029133;28;20036;-55
2021/08/10 02:49:18;;;;;;;1.33;0.90;;;;;;;-148.56;100.00;61375.16;5014233;28;20237;-57
2021/08/10 02:52:42;;;;;;;6.18;0.85;;;;;;;-148.56;100.00;61375.16;5030145;28;22397;-56
2021/08/10 02:56:07;;;;;;;0.93;0.65;;;;;;;-148.56;100.00;61375.16;5020996;28;20520;-58
2021/08/10 02:59:33;;;;;;;5.00;0.85;;;;;;;-148.56;100.00;61375.16;5020144;28;20037;-56
2021/08/10 03:03:12;;;;;;;4.45;1.23;;;;;;;-148.56;100.00;61375.16;5024174;28;20273;-54
2021/08/10 03:06:36;;;;;;;1.25;0.70;;;;;;;-148.56;100.00;61375.16;5000786;28;20025;-57
2021/08/10 03:10:01;;;;;;;2.45;1.00;;;;;;;-148.56;100.00;61375.16;5021654;28;20558;-56
2021/08/10 03:13:26;;;;;;;2.30;0.80;;;;;;;-148.56;100.00;61375.16;5005331;28;20036;-56
2021/08/10 03:16:25;;;;;;;1.33;0.85;;;;;;;27.52;30.47;96595.34;5023349;28;20419;-56
2021/08/10 03:19:50;;;;;;;1.42;1.00;;;;;;;-148.56;100.00;61375.16;4993583;28;20036;-55
2021/08/10 03:23:14;;;;;;;0.88;0.70;;;;;;;-148.56;100.00;61375.16;5032445;28;21543;-57
2021/08/10 03:26:39;;;;;;;3.45;1.20;;;;;;;-148.56;100.00;61375.16;5020241;28;21136;-58
2021/08/10 03:30:03;;;;;;;1.23;0.70;;;;;;;-148.56;100.00;61375.16;5012004;28;20039;-54
2021/08/10 03:33:30;;;;;;;2.42;0.82;;;;;;;-148.56;100.00;61375.16;5032364;28;20497;-57
2021/08/10 03:36:54;;;;;;;2.13;0.85;;;;;;;-148.56;100.00;61375.16;5017680;28;20044;-58
2021/08/10 03:40:18;;;;;;;1.77;1.02;;;;;;;-148.56;100.00;61375.16;5015227;28;20047;-58
2021/08/10 03:43:42;;;;;;;1.20;0.88;;;;;;;-148.56;100.00;61375.16;5032839;28;20051;-57
2021/08/10 03:47:06;;;;;;;1.88;0.85;;;;;;;-148.56;100.00;61375.16;5015045;28;20025;-58
2021/08/10 03:50:30;;;;;;;2.40;0.70;;;;;;;-148.56;100.00;61375.16;5036171;28;20550;-56
2021/08/10 03:53:54;;;;;;;3.55;0.80;;;;;;;-148.56;100.00;61375.16;5022659;28;20044;-56
2021/08/10 03:57:20;;;;;;;1.38;0.57;;;;;;;-148.56;100.00;61375.16;5030365;28;20036;-58
2021/08/10 04:00:45;;;;;;;1.27;0.60;;;;;;;-148.56;100.00;61375.16;5023069;28;20191;-55
2021/08/10 04:04:09;;;;;;;1.67;0.70;;;;;;;-148.56;100.00;61375.16;5011187;28;20029;-57
2021/08/10 04:07:32;;;;;;;1.63;0.70;;;;;;;-148.56;100.00;61375.16;5001392;28;20120;-56
2021/08/10 04:10:56;;;;;;;2.40;0.70;;;;;;;-148.56;100.00;61375.16;5002144;28;20025;-53
2021/08/10 04:14:21;;;;;;;1.40;0.70;;;;;;;-148.56;100.00;61375.16;5033807;28;20040;-60
2021/08/10 04:17:52;;;;;;;1.02;0.70;;;;;;;-148.56;100.00;61375.16;5024187;28;20158;-56
2021/08/10 04:21:19;;;;;;;1.40;1.08;;;;;;;-148.56;100.00;61375.16;5024509;28;20039;-57
2021/08/10 04:24:44;;;;;;;1.00;0.77;;;;;;;-148.56;100.00;61375.16;5027259;28;20033;-56
2021/08/10 04:28:09;;;;;;;1.10;0.80;;;;;;;-148.56;100.00;61375.16;5034030;28;20044;-57
2021/08/10 04:31:33;;;;;;;3.33;0.75;;;;;;;-148.56;100.00;61375.16;5033029;28;20028;-57
2021/08/10 04:34:58;;;;;;;1.70;0.80;;;;;;;-148.56;100.00;61375.16;5034817;28;20400;-57
2021/08/10 04:38:22;;;;;;;0.73;0.57;;;;;;;-148.56;100.00;61375.16;5028218;28;20049;-55
2021/08/10 04:41:46;;;;;;;1.08;0.60;;;;;;;-148.56;100.00;61375.16;5029785;28;20817;-57
2021/08/10 04:45:10;;;;;;;1.17;0.60;;;;;;;-148.56;100.00;61375.16;5035853;28;20064;-57
2021/08/10 04:48:34;;;;;;;1.00;0.70;;;;;;;-148.56;100.00;61375.16;5030144;28;20043;-57
2021/08/10 04:51:57;;;;;;;1.25;0.70;;;;;;;-148.56;100.00;61375.16;5035634;28;20055;-55
2021/08/10 04:55:21;;;;;;;1.15;0.77;;;;;;;-148.56;100.00;61375.16;5038553;28;20043;-56
2021/08/10 04:58:45;;;;;;;2.50;0.90;;;;;;;-148.56;100.00;61375.16;5027917;28;20498;-56
2021/08/10 05:02:09;;;;;;;0.95;0.70;;;;;;;-148.56;100.00;61375.16;5031310;28;20036;-58
2021/08/10 05:05:33;;;;;;;2.05;0.82;;;;;;;-148.56;100.00;61375.16;5028864;28;20425;-58
2021/08/10 05:08:57;;;;;;;2.30;0.73;;;;;;;-148.56;100.00;61375.16;5035372;28;20043;-57
2021/08/10 05:12:21;;;;;;;2.35;0.70;;;;;;;-148.56;100.00;61375.16;5029972;28;20036;-57
2021/08/10 05:15:45;;;;;;;1.65;1.00;;;;;;;-148.56;100.00;61375.16;5028041;28;20032;-56
2021/08/10 05:19:09;;;;;;;2.55;0.63;;;;;;;-148.56;100.00;61375.16;5036109;28;20044;-56
2021/08/10 05:22:33;;;;;;;1.08;0.70;;;;;;;-148.56;100.00;61375.16;5031421;28;20079;-57
2021/08/10 05:25:57;;;;;;;1.00;0.60;;;;;;;-148.56;100.00;61375.16;5025791;28;20607;-55
2021/08/10 05:29:20;;;;;;;0.75;0.50;;;;;;;-148.56;100.00;61375.16;5019311;28;20080;-59
2021/08/10 05:32:44;;;;;;;1.73;0.68;;;;;;;-148.56;100.00;61375.16;5017974;28;20435;-57
2021/08/10 05:36:08;;;;;;;3.75;0.85;;;;;;;-148.56;100.00;61375.16;5018122;28;20033;-56
2021/08/10 05:39:32;;;;;;;0.68;0.43;;;;;;;-148.56;100.00;61375.16;5028829;28;20068;-57
2021/08/10 05:42:56;;;;;;;1.70;0.50;;;;;;;-148.56;100.00;61375.16;5025229;28;20158;-56
2021/08/10 05:46:20;;;;;;;1.00;0.70;;;;;;;-148.56;100.00;61375.16;5034956;28;20048;-57
2021/08/10 05:49:44;;;;;;;0.80;0.60;;;;;;;-148.56;100.00;61375.16;5032741;28;20045;-58
2021/08/10 05:53:08;;;;;;;0.73;0.60;;;;;;;-148.56;100.00;61375.16;5028854;28;20483;-56
2021/08/10 05:56:31;;;;;;;0.93;0.60;;;;;;;-148.56;100.00;61375.16;5033142;28;20063;-56
2021/08/10 05:59:55;;;;;;;1.27;0.80;;;;;;;-148.56;100.00;61375.16;5020891;28;20397;-55
2021/08/10 06:03:19;;;;;;;1.92;0.55;;;;;;;-148.56;100.00;61375.16;5013355;28;20032;-55
2021/08/10 06:06:43;;;;;;;1.80;0.70;;;;;;;-148.56;100.00;61375.16;5030868;28;20277;-58
2021/08/10 06:10:07;;;;;;;0.55;0.45;;;;;;;-148.56;100.00;61375.16;5022388;28;20075;-57
2021/08/10 06:13:31;;;;;;;1.27;0.65;;;;;;;-148.56;100.00;61375.16;5023328;28;20040;-57
2021/08/10 06:16:55;;;;;;;5.93;1.50;;;;;;;-148.56;100.00;61375.16;5028205;28;20082;-58
2021/08/10 06:20:19;;;;;;;3.35;0.98;;;;;;;-148.56;100.00;61375.16;5025984;28;20039;-59
2021/08/10 06:23:43;;;;;;;5.75;1.02;;;;;;;-148.56;100.00;61375.16;5027446;28;20323;-57
2021/08/10 06:27:07;;;;;;;1.92;1.08;;;;;;;-148.56;100.00;61375.16;5015321;28;20094;-57
2021/08/10 06:30:30;;;;;;;10.43;2.17;;;;;;;-148.56;100.00;61375.16;5030122;28;20337;-56
2021/08/10 06:33:54;;;;;;;7.63;2.30;;;;;;;-148.56;100.00;61375.16;5030727;28;20118;-57
2021/08/10 06:37:18;;;;;;;9.20;2.50;;;;;;;-148.56;100.00;61375.16;5027990;28;20132;-58
2021/08/10 06:40:42;;;;;;;9.30;2.80;;;;;;;-148.56;100.00;61375.16;5021397;28;20053;-58
2021/08/10 06:44:06;;;;;;;9.65;3.03;;;;;;;-148.56;100.00;61375.16;5023491;28;20028;-57
2021/08/10 06:47:32;;;;;;;7.45;2.75;;;;;;;-148.56;100.00;61375.16;5014999;28;20084;-58
2021/08/10 06:50:56;;;;;;;7.60;2.92;;;;;;;-148.56;100.00;61375.16;5027701;28;20065;-57
2021/08/10 06:54:20;;;;;;;8.95;3.03;;;;;;;-148.56;100.00;61375.16;5027146;28;20102;-56
2021/08/10 06:57:44;;;;;;;9.20;3.33;;;;;;;-148.56;100.00;61375.16;5030926;28;20063;-56
2021/08/10 07:01:08;;;;;;;7.07;2.72;;;;;;;-148.56;100.00;61375.16;5026583;28;20033;-57
2021/08/10 07:04:32;;;;;;;9.88;2.80;;;;;;;-148.56;100.00;61375.16;5027803;28;20040;-58
2021/08/10 07:07:58;;;;;;;10.27;3.15;;;;;;;-148.56;100.00;61375.16;5025901;28;20035;-57
2021/08/10 07:11:22;;;;;;;9.38;3.08;;;;;;;-148.56;100.00;61375.16;5027895;28;20039;-56
2021/08/10 07:14:46;;;;;;;7.63;2.70;;;;;;;-148.56;100.00;61375.16;5027482;28;20111;-58
2021/08/10 07:18:09;;;;;;;9.95;2.60;;;;;;;-148.56;100.00;61375.16;5009647;28;20147;-57
2021/08/10 07:21:33;;;;;;;6.00;2.67;;;;;;;-148.56;100.00;61375.16;5026406;28;20037;-59
2021/08/10 07:24:57;;;;;;;7.40;2.40;;;;;;;-148.56;100.00;61375.16;5016017;28;20044;-57
2021/08/10 07:28:21;;;;;;;6.88;2.45;;;;;;;-148.56;100.00;61375.16;5028241;28;20039;-59
2021/08/10 07:31:45;;;;;;;11.02;2.88;;;;;;;-148.56;100.00;61375.16;5027672;28;20460;-58
2021/08/10 07:35:09;;;;;;;6.55;2.50;;;;;;;-148.56;100.00;61375.16;5025262;28;20033;-59
2021/08/10 07:38:36;;;;;;;9.75;2.45;;;;;;;-148.56;100.00;61375.16;5028051;28;20092;-59
2021/08/10 07:42:00;;;;;;;7.85;2.40;;;;;;;-148.56;100.00;61375.16;5027745;28;20032;-59
2021/08/10 07:45:23;;;;;;;6.90;2.35;;;;;;;-148.56;100.00;61375.16;5026979;28;20805;-57
2021/08/10 07:48:47;;;;;;;7.13;1.90;;;;;;;-148.56;100.00;61375.16;5026087;28;20467;-59
2021/08/10 07:52:11;;;;;;;6.68;2.17;;;;;;;-148.56;100.00;61375.16;5019614;28;20334;-58
2021/08/10 07:55:35;;;;;;;4.63;2.22;;;;;;;-148.56;100.00;61375.16;5029131;28;20060;-58
2021/08/10 07:58:59;;;;;;;6.60;2.53;;;;;;;-148.56;100.00;61375.16;5027032;28;20031;-60
2021/08/10 08:02:23;;;;;;;5.47;2.03;;;;;;;-148.56;100.00;61375.16;5020492;28;20507;-61
2021/08/10 08:05:47;;;;;;;5.82;2.40;;;;;;;-148.56;100.00;61375.16;5027621;28;20614;-60
2021/08/10 08:09:11;;;;;;;3.97;2.08;;;;;;;-148.56;100.00;61375.16;5027532;28;20504;-58
2021/08/10 08:12:35;;;;;;;4.97;1.75;;;;;;;-148.56;100.00;61375.16;5026769;28;20066;-58
2021/08/10 08:15:59;;;;;;;4.43;1.92;;;;;;;-148.56;100.00;61375.16;5027016;28;20032;-58
2021/08/10 08:19:22;;;;;;;3.65;1.70;;;;;;;-148.56;100.00;61375.16;5013855;28;20033;-59
2021/08/10 08:22:46;;;;;;;3.50;1.70;;;;;;;-148.56;100.00;61375.16;5029076;28;20041;-59
2021/08/10 08:26:10;;;;;;;4.72;2.00;;;;;;;-148.56;100.00;61375.16;5034054;28;20111;-59
2021/08/10 08:29:34;;;;;;;10.18;1.92;;;;;;;-148.56;100.00;61375.16;5019099;28;20419;-60
2021/08/10 08:32:58;;;;;;;4.53;1.80;;;;;;;-148.56;100.00;61375.16;5029623;28;20861;-57
2021/08/10 08:36:22;;;;;;;7.03;1.92;;;;;;;-148.56;100.00;61375.16;5032955;28;20140;-58
2021/08/10 08:39:46;;;;;;;4.25;2.17;;;;;;;-148.56;100.00;61375.16;5033984;28;20256;-58
2021/08/10 08:43:12;;;;;;;5.68;2.03;;;;;;;-148.56;100.00;61375.16;5016505;28;20028;-58
2021/08/10 08:46:38;;;;;;;6.15;2.15;;;;;;;-148.56;100.00;61375.16;5012915;28;20055;-57
2021/08/10 08:50:02;;;;;;;8.00;1.90;;;;;;;-148.56;100.00;61375.16;5031159;28;20107;-57
2021/08/10 08:53:25;;;;;;;5.10;2.03;;;;;;;-148.56;100.00;61375.16;5020848;28;20033;-57
2021/08/10 08:56:49;;;;;;;5.70;2.42;;;;;;;-148.56;100.00;61375.16;4992865;28;20065;-59
2021/08/10 09:00:14;;;;;;;10.18;2.90;;;;;;;-148.56;100.00;61375.16;5026832;28;20063;-58
2021/08/10 09:03:37;;;;;;;11.52;2.58;;;;;;;-148.56;100.00;61375.16;5029045;28;20055;-57
2021/08/10 09:07:01;;;;;;;10.40;2.60;;;;;;;-148.56;100.00;61375.16;5026698;28;20021;-58
2021/08/10 09:10:27;;;;;;;7.55;2.42;;;;;;;-148.56;100.00;61375.16;5010026;28;20361;-58
2021/08/10 09:13:57;;;;;;;9.52;2.10;;;;;;;-148.56;100.00;61375.16;5029919;28;20515;-57
2021/08/10 09:17:22;;;;;;;6.55;2.20;;;;;;;-148.56;100.00;61375.16;5015458;28;20025;-58
2021/08/10 09:21:00;;;;;;;5.45;2.35;;;;;;;-148.56;100.00;61375.16;5031831;28;20053;-58
2021/08/10 09:24:39;;;;;;;4.88;2.15;;;;;;;-148.56;100.00;61375.16;5028825;28;20095;-58
2021/08/10 09:28:04;;;;;;;7.30;2.10;;;;;;;-148.56;100.00;61375.16;5024497;28;20389;-58
2021/08/10 09:31:32;;;;;;;11.23;3.17;;;;;;;-148.56;100.00;61375.16;5005971;28;20198;-59
2021/08/10 09:35:09;;;;;;;12.70;3.50;;;;;;;-148.56;100.00;61375.16;5030638;28;21151;-60
2021/08/10 09:38:33;;;;;;;13.15;4.43;;;;;;;-148.56;100.00;61375.16;5029760;28;20027;-60
2021/08/10 09:42:03;;;;;;;6.30;2.15;;;;;;;-148.56;100.00;61375.16;5027854;28;20039;-61
2021/08/10 09:45:27;;;;;;;7.03;2.60;;;;;;;-148.56;100.00;61375.16;5005457;28;20056;-59
2021/08/10 09:48:54;;;;;;;7.13;2.40;;;;;;;-148.56;100.00;61375.16;5029649;28;20040;-59
2021/08/10 09:52:23;;;;;;;6.43;2.25;;;;;;;-148.56;100.00;61375.16;5029909;28;20021;-58
2021/08/10 09:55:53;;;;;;;6.03;2.30;;;;;;;-148.56;100.00;61375.16;5013167;28;20203;-57
2021/08/10 09:59:21;;;;;;;5.28;2.75;;;;;;;-148.56;100.00;61375.16;5022605;28;20040;-60
2021/08/10 10:04:10;;;;;;;8.10;2.42;;;;;;;28.89;32.67;96854.66;5065615;27;20515;-31
2021/08/10 10:06:35;;;;;;;7.35;2.20;;;;;;;29.02;32.65;96853.88;5072166;28;20036;-31
2021/08/10 10:09:00;;;;;;;6.72;2.42;;;;;;;29.13;32.84;96856.63;5064228;28;20036;-33
2021/08/10 10:11:27;;;;;;;5.43;2.30;;;;;;;29.23;32.88;96856.00;5061367;28;20535;-32
2021/08/10 10:13:55;;;;;;;6.72;2.42;;;;;;;29.33;32.56;96851.84;5058752;28;20653;-30
2021/08/10 10:16:20;;;;;;;4.47;1.98;;;;;;;29.40;32.53;96853.09;5065758;28;20040;-28
2021/08/10 10:18:46;;;;;;;5.72;2.30;;;;;;;29.47;32.58;96843.81;5043498;28;20093;-31
2021/08/10 10:21:11;;;;;;;5.15;2.17;;;;;;;29.56;32.36;96845.00;5046024;28;20039;-30
2021/08/10 10:23:37;;;;;;;10.40;2.05;;;;;;;29.64;32.29;96843.66;5065664;28;20020;-35
2021/08/10 10:26:03;;;;;;;4.68;2.20;;;;;;;29.72;32.07;96847.44;5049797;28;20040;-29
2021/08/10 10:28:31;;;;;;;3.83;1.80;;;;;;;29.78;31.39;96850.63;5066746;28;20024;-30
2021/08/10 10:30:56;;;;;;;4.00;1.80;;;;;;;29.82;30.47;96842.38;5047321;28;20028;-33
2021/08/10 10:33:22;;;;;;;4.28;2.28;;;;;;;29.87;31.08;96850.00;5067694;28;20814;-30
2021/08/10 10:35:49;;;;;;;4.07;1.73;;;;;;;29.94;31.14;96845.97;5066867;28;20032;-30
2021/08/10 10:38:14;;;;;;;4.72;2.30;;;;;;;29.99;31.33;96843.00;5050905;28;20427;-29
2021/08/10 10:40:40;;;;;;;6.00;2.00;;;;;;;30.05;31.54;96839.09;5050737;28;20024;-29
2021/08/10 10:43:05;;;;;;;7.38;1.98;;;;;;;30.09;31.40;96840.56;5063243;28;20035;-30
2021/08/10 10:45:38;;;;;;;2.70;1.80;;;;;;;30.14;31.51;96841.13;5046948;28;20032;-31
2021/08/10 10:48:24;;;;;;;4.95;2.22;;;;;;;30.17;30.99;96843.53;5066378;28;20253;-30
2021/08/10 10:51:11;;;;;;;4.78;1.80;;;;;;;30.22;30.90;96846.72;5075095;28;20028;-31
2021/08/10 10:53:37;;;;;;;5.07;1.83;;;;;;;30.25;31.04;96848.28;5073371;28;20028;-29
2021/08/10 10:56:02;;;;;;;3.35;1.80;;;;;;;30.27;30.34;96835.81;5070515;28;22645;-30
2021/08/10 10:58:29;;;;;;;2.92;1.70;;;;;;;30.31;30.79;96841.69;5073274;28;20130;-30
2021/08/10 11:02:13;;;;;;;3.80;1.88;;;;;;;-148.56;100.00;61375.16;5073541;28;20512;-31
2021/08/10 11:05:37;;;;;;;3.95;2.10;;;;;;;-148.56;100.00;61375.16;5072299;28;20056;-28
2021/08/10 11:09:02;;;;;;;1.92;1.40;;;;;;;-148.56;100.00;61375.16;5070597;28;20032;-28
2021/08/10 11:12:45;;;;;;;5.68;1.90;;;;;;;-148.56;100.00;61375.16;5071195;28;20191;-29
2021/08/10 11:16:10;;;;;;;3.28;1.88;;;;;;;-148.56;100.00;61375.16;5057603;28;20028;-29
2021/08/10 11:19:36;;;;;;;3.55;2.00;;;;;;;-148.56;100.00;61375.16;5058548;28;20055;-33
2021/08/10 11:26:45;;;;;;;2.35;1.70;;;;;;;-148.56;100.00;61375.16;5053592;28;20451;-31
2021/08/10 11:30:10;;;;;;;3.22;1.80;;;;;;;-148.56;100.00;61375.16;5058216;28;20360;-32
2021/08/10 11:33:34;;;;;;;2.35;1.35;;;;;;;-148.56;100.00;61375.16;5052414;28;20029;-30
2021/08/10 11:37:17;;;;;;;3.72;1.80;;;;;;;-148.56;100.00;61375.16;5051650;28;20555;-31
2021/08/10 11:41:01;;;;;;;2.50;1.40;;;;;;;-148.56;100.00;61375.16;5051809;28;20036;-29
2021/08/10 11:44:41;;;;;;;2.30;1.40;;;;;;;-148.56;100.00;61375.16;5052428;28;20033;-29
2021/08/10 11:48:05;;;;;;;2.60;1.50;;;;;;;-148.56;100.00;61375.16;5054618;28;20039;-33
2021/08/10 11:51:39;;;;;;;3.28;1.50;;;;;;;-148.56;100.00;61375.16;5056562;28;20032;-34
2021/08/10 11:55:09;;;;;;;6.00;1.90;;;;;;;-148.56;100.00;61375.16;5051660;28;20070;-30
2021/08/10 11:58:43;;;;;;;7.43;1.80;;;;;;;-148.56;100.00;61375.16;5050426;28;20873;-29
2021/08/10 12:02:07;;;;;;;4.75;1.80;;;;;;;-148.56;100.00;61375.16;5052935;28;20742;-29
2021/08/10 12:05:33;;;;;;;5.35;1.70;;;;;;;-148.56;100.00;61375.16;5051893;28;20032;-30
2021/08/10 12:09:03;;;;;;;4.38;1.60;;;;;;;-148.56;100.00;61375.16;5050773;28;20630;-29
2021/08/10 12:12:33;;;;;;;3.13;1.58;;;;;;;-148.56;100.00;61375.16;5061467;28;20024;-31
2021/08/10 12:15:57;;;;;;;5.35;1.65;;;;;;;-148.56;100.00;61375.16;5061347;28;20139;-31
2021/08/10 12:19:37;;;;;;;4.35;1.80;;;;;;;-148.56;100.00;61375.16;5058416;28;20029;-33
2021/08/10 12:23:02;;;;;;;6.07;2.03;;;;;;;-148.56;100.00;61375.16;5057692;28;20479;-29
2021/08/10 12:26:29;;;;;;;2.63;1.35;;;;;;;-148.56;100.00;61375.16;5051614;28;20028;-29
2021/08/10 12:29:56;;;;;;;2.95;1.58;;;;;;;-148.56;100.00;61375.16;5048893;28;20025;-30
2021/08/10 12:33:22;;;;;;;3.22;1.48;;;;;;;-148.56;100.00;61375.16;5059936;28;20032;-31
2021/08/10 12:36:55;;;;;;;3.38;1.60;;;;;;;-148.56;100.00;61375.16;5062478;28;20143;-31
2021/08/10 12:40:21;;;;;;;2.65;1.60;;;;;;;-148.56;100.00;61375.16;5057733;28;20121;-31
2021/08/10 12:43:49;;;;;;;3.28;1.40;;;;;;;-148.56;100.00;61375.16;5058168;28;20561;-34
2021/08/10 12:47:34;;;;;;;3.47;1.58;;;;;;;-148.56;100.00;61375.16;5057441;28;20046;-31
2021/08/10 12:51:02;;;;;;;3.03;1.50;;;;;;;-148.56;100.00;61375.16;5059301;28;20032;-35
2021/08/10 12:54:36;;;;;;;3.75;1.77;;;;;;;-148.56;100.00;61375.16;5055069;28;20021;-33
2021/08/10 12:58:01;;;;;;;2.67;1.38;;;;;;;-148.56;100.00;61375.16;5052796;28;20568;-30
2021/08/10 13:01:25;;;;;;;2.03;1.30;;;;;;;-148.56;100.00;61375.16;5058941;28;20438;-29
2021/08/10 13:04:55;;;;;;;4.15;1.33;;;;;;;-148.56;100.00;61375.16;5052412;28;20225;-31
2021/08/10 13:08:19;;;;;;;3.50;1.60;;;;;;;-148.56;100.00;61375.16;5056084;28;20082;-33
2021/08/10 13:11:43;;;;;;;1.60;1.13;;;;;;;-148.56;100.00;61375.16;5058060;28;20024;-28
2021/08/10 13:15:10;;;;;;;1.92;1.33;;;;;;;-148.56;100.00;61375.16;5057879;28;20114;-33
2021/08/10 13:18:42;;;;;;;2.53;1.48;;;;;;;-148.56;100.00;61375.16;5059766;28;20028;-31
2021/08/10 13:22:06;;;;;;;2.70;1.70;;;;;;;-148.56;100.00;61375.16;5063884;28;20316;-31
2021/08/10 13:25:30;;;;;;;1.95;1.45;;;;;;;-148.56;100.00;61375.16;5057727;28;20028;-33
2021/08/10 13:29:07;;;;;;;2.05;1.17;;;;;;;-148.56;100.00;61375.16;5055866;28;20028;-30
2021/08/10 13:32:31;;;;;;;3.35;1.45;;;;;;;-148.56;100.00;61375.16;5056772;28;20450;-31
2021/08/10 13:35:55;;;;;;;2.38;1.15;;;;;;;-148.56;100.00;61375.16;5053145;28;20055;-32
2021/08/10 13:39:18;;;;;;;1.75;0.93;;;;;;;-148.56;100.00;61375.16;5059481;28;20873;-33
2021/08/10 13:42:42;;;;;;;2.92;1.20;;;;;;;-148.56;100.00;61375.16;5058709;28;20043;-29
2021/08/10 13:46:06;;;;;;;4.40;1.40;;;;;;;-148.56;100.00;61375.16;5059134;28;20076;-32
2021/08/10 13:49:33;;;;;;;1.33;1.00;;;;;;;-148.56;100.00;61375.16;5040169;28;20028;-33
2021/08/10 13:52:57;;;;;;;2.17;1.00;;;;;;;-148.56;100.00;61375.16;5053431;28;20446;-30
2021/08/10 13:56:21;;;;;;;1.38;1.05;;;;;;;-148.56;100.00;61375.16;5058756;28;20063;-32
2021/08/10 13:59:45;;;;;;;4.20;1.40;;;;;;;-148.56;100.00;61375.16;5050912;28;20554;-29
2021/08/10 14:03:09;;;;;;;1.20;0.77;;;;;;;-148.56;100.00;61375.16;5054986;28;20060;-33
2021/08/10 14:06:32;;;;;;;2.63;1.17;;;;;;;-148.56;100.00;61375.16;5056518;28;20102;-32
2021/08/10 14:09:56;;;;;;;2.05;1.20;;;;;;;-148.56;100.00;61375.16;5054866;28;20032;-32
2021/08/10 14:13:20;;;;;;;1.45;0.90;;;;;;;-148.56;100.00;61375.16;5058095;28;22606;-31
2021/08/10 14:16:45;;;;;;;1.33;1.00;;;;;;;-148.56;100.00;61375.16;5058169;28;20107;-32
2021/08/10 14:20:09;;;;;;;1.33;1.05;;;;;;;-148.56;100.00;61375.16;5060448;28;20849;-31
2021/08/10 14:23:33;;;;;;;4.00;1.38;;;;;;;-148.56;100.00;61375.16;5055122;28;20572;-34
2021/08/10 14:26:57;;;;;;;2.50;1.35;;;;;;;-148.56;100.00;61375.16;5059525;28;20032;-31
2021/08/10 14:30:21;;;;;;;2.13;1.02;;;;;;;-148.56;100.00;61375.16;5057685;28;20081;-30
2021/08/10 14:33:45;;;;;;;2.50;1.10;;;;;;;-148.56;100.00;61375.16;5057956;28;20032;-33
2021/08/10 14:37:09;;;;;;;1.58;0.90;;;;;;;-148.56;100.00;61375.16;5057286;28;20028;-30
2021/08/10 14:40:33;;;;;;;1.13;0.65;;;;;;;-148.56;100.00;61375.16;5056205;28;20028;-29
2021/08/10 14:43:57;;;;;;;1.50;0.95;;;;;;;-148.56;100.00;61375.16;5057499;28;20510;-34
2021/08/10 14:47:00;;;;;;;2.30;1.00;;;;;;;-148.56;100.00;61375.16;5058328;28;20071;-29
2021/08/10 14:50:23;;;;;;;2.10;1.17;;;;;;;-148.56;100.00;61375.16;5059853;28;20794;-33
2021/08/10 14:52:59;;;;;;;1.83;1.00;;;;;;;-148.56;100.00;61375.16;5060720;28;20450;-32
2021/08/10 14:56:22;;;;;;;1.55;1.00;;;;;;;-148.56;100.00;61375.16;5059485;28;20037;-31
2021/08/10 14:59:40;;;;;;;1.30;1.00;;;;;;;-148.56;nan;61375.16;5051538;28;20480;-30
2021/08/10 15:02:48;;;;;;;2.03;1.00;;;;;;;-148.56;100.00;70587.81;5058720;28;20028;-32
2021/08/10 15:06:14;;;;;;;1.38;1.02;;;;;;;-148.56;100.00;61375.16;5063883;28;20139;-33
2021/08/10 15:09:39;;;;;;;0.93;0.80;;;;;;;-148.56;100.00;61375.16;5059476;28;20139;-33
2021/08/10 15:13:03;;;;;;;1.42;1.10;;;;;;;-148.56;100.00;61375.16;5061655;28;20104;-33
2021/08/10 15:16:27;;;;;;;1.90;1.08;;;;;;;-148.56;100.00;61375.16;5061098;28;20028;-30
2021/08/10 15:19:51;;;;;;;1.55;0.90;;;;;;;-148.56;100.00;61375.16;5061771;28;20754;-31